createdAt,value
2017-04-22T00:09:02.537Z,0
2017-04-22T00:19:02.351Z,0
2017-04-22T00:29:02.342Z,0
2017-04-22T00:39:02.456Z,0
2017-04-22T00:49:02.360Z,0
2017-04-22T00:59:02.342Z,0
2017-04-22T01:09:02.349Z,0
2017-04-22T01:19:02.358Z,0
2017-04-22T01:29:02.348Z,0
2017-04-22T01:39:02.321Z,0
2017-04-22T01:49:02.353Z,0
2017-04-22T01:59:02.432Z,0
2017-04-22T02:09:02.374Z,0
2017-04-22T02:19:02.490Z,0
2017-04-22T02:29:02.328Z,0
2017-04-22T02:39:02.540Z,0
2017-04-22T02:49:02.776Z,0
2017-04-22T02:59:02.333Z,0
2017-04-22T03:09:02.406Z,0
2017-04-22T03:19:02.910Z,0
2017-04-22T03:29:02.319Z,0
2017-04-22T03:39:12.214Z,0
2017-04-22T03:49:02.367Z,0
2017-04-22T03:59:02.300Z,0
2017-04-22T04:09:02.314Z,0
2017-04-22T04:19:02.894Z,5
2017-04-22T04:29:02.398Z,10
2017-04-22T04:39:02.314Z,25
2017-04-22T04:49:02.422Z,50
2017-04-22T04:59:02.305Z,55
2017-04-22T05:09:02.436Z,70
2017-04-22T05:19:02.901Z,125
2017-04-22T05:29:02.389Z,120
2017-04-22T05:39:02.470Z,135
2017-04-22T05:49:02.398Z,145
2017-04-22T05:59:02.299Z,125
2017-04-22T06:09:02.406Z,135
2017-04-22T06:19:02.327Z,135
2017-04-22T06:29:02.279Z,195
2017-04-22T06:39:02.287Z,185
2017-04-22T06:49:02.370Z,210
2017-04-22T06:59:02.334Z,230
2017-04-22T07:09:02.445Z,275
2017-04-22T07:19:02.306Z,340
2017-04-22T07:29:02.421Z,440
2017-04-22T07:39:02.332Z,145
2017-04-22T07:49:02.405Z,315
2017-04-22T07:59:02.380Z,1430
2017-04-22T08:09:02.367Z,1535
2017-04-22T08:19:02.456Z,1480
2017-04-22T08:29:02.335Z,715
2017-04-22T08:39:02.412Z,365
2017-04-22T08:49:02.416Z,215
2017-04-22T08:59:02.320Z,380
2017-04-22T09:09:02.310Z,370
2017-04-22T09:19:02.408Z,265
2017-04-22T09:29:02.326Z,335
2017-04-22T09:39:02.405Z,280
2017-04-22T09:49:02.335Z,480
2017-04-22T09:59:02.322Z,440
2017-04-22T10:09:02.374Z,430
2017-04-22T10:19:02.298Z,320
2017-04-22T10:29:02.319Z,405
2017-04-22T10:39:02.357Z,430
2017-04-22T10:49:02.312Z,445
2017-04-22T10:59:02.319Z,420
2017-04-22T11:09:02.314Z,190
2017-04-22T11:19:02.437Z,85
2017-04-22T11:29:02.314Z,190
2017-04-22T11:39:02.472Z,195
2017-04-22T11:49:02.419Z,225
2017-04-22T11:59:02.341Z,165
2017-04-22T12:09:02.404Z,360
2017-04-22T12:19:02.358Z,405
2017-04-22T12:29:02.488Z,295
2017-04-22T12:39:02.854Z,355
2017-04-22T12:49:02.422Z,355
2017-04-22T12:59:02.444Z,325
2017-04-22T13:09:02.353Z,330
2017-04-22T13:19:02.464Z,265
2017-04-22T13:29:02.356Z,330
2017-04-22T13:39:02.392Z,150
2017-04-22T13:49:02.326Z,260
2017-04-22T13:59:02.425Z,340
2017-04-22T14:09:02.453Z,285
2017-04-22T14:19:02.350Z,305
2017-04-22T14:29:02.590Z,260
2017-04-22T14:39:02.349Z,275
2017-04-22T14:49:02.390Z,185
2017-04-22T14:59:02.492Z,190
2017-04-22T15:09:02.973Z,110
2017-04-22T15:19:03.726Z,115
2017-04-22T15:29:02.675Z,265
2017-04-22T15:39:04.429Z,185
2017-04-22T15:49:03.025Z,170
2017-04-22T15:59:03.267Z,170
2017-04-22T16:09:03.191Z,175
2017-04-22T16:19:03.007Z,185
2017-04-22T16:29:03.725Z,180
2017-04-22T16:39:03.350Z,140
2017-04-22T16:49:03.565Z,115
2017-04-22T16:59:02.943Z,100
2017-04-22T17:09:03.118Z,70
2017-04-22T17:29:06.026Z,60
2017-04-22T17:39:03.380Z,50
2017-04-22T17:49:03.311Z,30
2017-04-22T17:59:04.715Z,15
2017-04-22T18:09:03.964Z,15
2017-04-22T18:19:03.170Z,15
2017-04-22T18:29:03.490Z,10
2017-04-22T18:39:06.191Z,0
2017-04-22T18:49:05.133Z,0
2017-04-22T18:59:06.162Z,0
2017-04-22T19:09:07.806Z,0
2017-04-22T19:19:04.159Z,0
2017-04-22T19:29:03.465Z,0
2017-04-22T19:39:04.499Z,0
2017-04-22T19:49:04.734Z,0
2017-04-22T19:59:05.415Z,0
2017-04-22T20:11:05.161Z,0
2017-04-22T20:19:03.794Z,0
2017-04-22T20:29:04.394Z,0
2017-04-22T20:39:06.567Z,0
2017-04-22T20:49:08.552Z,0
2017-04-22T20:59:05.084Z,0
2017-04-22T21:09:02.382Z,0
2017-04-22T21:19:02.279Z,0
2017-04-22T21:29:02.608Z,0
2017-04-22T21:39:02.367Z,0
2017-04-22T21:49:02.315Z,0
2017-04-22T21:59:02.313Z,0
2017-04-22T22:09:02.320Z,0
2017-04-22T22:19:02.288Z,0
2017-04-22T22:29:02.293Z,0
2017-04-22T22:39:02.297Z,0
2017-04-22T22:49:02.255Z,0
2017-04-22T22:59:02.325Z,0
2017-04-22T23:09:02.299Z,0
2017-04-22T23:19:02.283Z,0
2017-04-22T23:29:02.245Z,0
2017-04-22T23:39:02.273Z,0
2017-04-22T23:49:02.359Z,0
2017-04-22T23:59:02.314Z,0
